TimeCDT,TemperatureF,Dew PointF,Humidity,Sea Level PressureIn,VisibilityMPH,Wind Direction,Wind SpeedMPH,Gust SpeedMPH,PrecipitationIn,Events,Conditions,WindDirDegrees,DateUTC
12:15 AM,47.5,41.5,80,29.89,10.0,NW,18.4,21.9,N/A,,Overcast,320,2013-05-22 05:15:00
12:35 AM,47.5,41.5,80,29.89,10.0,NW,15.0,-,N/A,,Overcast,320,2013-05-22 05:35:00
12:55 AM,47.7,41.5,79,29.89,10.0,NW,17.3,20.7,N/A,,Overcast,320,2013-05-22 05:55:00
1:15 AM,47.3,41.5,80,29.89,10.0,NNW,16.1,20.7,N/A,,Overcast,330,2013-05-22 06:15:00
1:35 AM,46.9,41.5,81,29.88,10.0,NW,18.4,23.0,N/A,,Overcast,320,2013-05-22 06:35:00
1:55 AM,47.1,41.4,80,29.88,10.0,NW,17.3,23.0,N/A,,Overcast,320,2013-05-22 06:55:00
2:15 AM,47.3,41.2,79,29.87,10.0,NW,15.0,26.5,N/A,,Overcast,320,2013-05-22 07:15:00
2:35 AM,46.9,41.0,80,29.87,10.0,NNW,21.9,27.6,N/A,,Overcast,330,2013-05-22 07:35:00
2:55 AM,46.9,41.0,80,29.87,10.0,NNW,18.4,26.5,N/A,,Overcast,340,2013-05-22 07:55:00
3:15 AM,46.8,41.2,81,29.87,10.0,NNW,18.4,24.2,N/A,,Overcast,330,2013-05-22 08:15:00
3:35 AM,46.6,41.0,81,29.89,10.0,NNW,16.1,25.3,N/A,,Overcast,330,2013-05-22 08:35:00
3:55 AM,46.6,41.4,82,29.89,10.0,NNW,15.0,20.7,N/A,,Overcast,330,2013-05-22 08:55:00
4:15 AM,46.4,41.9,84,29.89,10.0,NNW,17.3,24.2,N/A,,Overcast,330,2013-05-22 09:15:00
4:35 AM,46.6,41.4,82,29.89,10.0,NNW,17.3,25.3,N/A,,Overcast,330,2013-05-22 09:35:00
4:55 AM,46.6,41.0,81,29.90,10.0,NW,12.7,18.4,N/A,,Overcast,320,2013-05-22 09:55:00
5:15 AM,46.4,41.2,82,29.91,10.0,NW,11.5,-,N/A,,Overcast,320,2013-05-22 10:15:00
5:35 AM,46.4,41.9,84,29.91,10.0,NNW,10.4,16.1,N/A,,Overcast,330,2013-05-22 10:35:00
5:55 AM,46.8,41.9,83,29.91,10.0,NNW,13.8,17.3,N/A,,Overcast,330,2013-05-22 10:55:00
6:15 AM,46.9,41.5,81,29.91,10.0,NW,12.7,18.4,N/A,,Overcast,320,2013-05-22 11:15:00
6:35 AM,46.9,41.9,83,29.91,10.0,NNW,12.7,-,N/A,,Overcast,330,2013-05-22 11:35:00
6:55 AM,46.4,42.8,87,29.92,3.0,NNW,12.7,-,N/A,,Overcast,330,2013-05-22 11:55:00
7:15 AM,46.6,43.0,87,29.91,10.0,NNW,13.8,17.3,N/A,,Overcast,330,2013-05-22 12:15:00
7:35 AM,47.3,42.6,84,29.92,10.0,NNW,13.8,18.4,N/A,,Overcast,330,2013-05-22 12:35:00
7:55 AM,47.7,42.6,83,29.92,10.0,NNW,10.4,-,N/A,,Overcast,330,2013-05-22 12:55:00
8:15 AM,47.8,42.4,82,29.92,10.0,NW,16.1,21.9,N/A,,Overcast,320,2013-05-22 13:15:00
8:35 AM,48.2,42.8,82,29.93,10.0,NW,13.8,21.9,N/A,,Overcast,320,2013-05-22 13:35:00
8:55 AM,-9999,-9999,N/A,29.93,10.0,NW,16.1,20.7,N/A,,Overcast,320,2013-05-22 13:55:00
9:15 AM,49.1,42.4,78,29.93,10.0,NNW,15.0,21.9,N/A,,Overcast,330,2013-05-22 14:15:00
9:35 AM,-9999,-9999,N/A,29.94,10.0,NNW,16.1,24.2,N/A,,Overcast,340,2013-05-22 14:35:00
9:55 AM,52.0,42.8,71,29.94,10.0,North,-9999.0,-,N/A,,Overcast,0,2013-05-22 14:55:00
10:15 AM,-9999,-9999,N/A,-9999,-9999.0,North,-9999.0,-,N/A,,Overcast,0,2013-05-22 15:15:00
10:35 AM,54.5,43.7,67,29.93,10.0,NW,16.1,23.0,N/A,,Overcast,320,2013-05-22 15:35:00
10:55 AM,54.5,43.5,66,29.93,10.0,NW,17.3,25.3,N/A,,Overcast,320,2013-05-22 15:55:00
11:15 AM,56.7,44.2,63,29.93,10.0,NNW,19.6,24.2,N/A,,Overcast,330,2013-05-22 16:15:00
11:35 AM,57.2,44.6,63,29.94,10.0,NW,17.3,24.2,N/A,,Mostly Cloudy,320,2013-05-22 16:35:00
11:55 AM,58.8,45.3,61,29.94,10.0,NNW,17.3,24.2,N/A,,Scattered Clouds,330,2013-05-22 16:55:00
12:15 PM,59.2,45.5,60,29.93,10.0,North,16.1,23.0,N/A,,Scattered Clouds,350,2013-05-22 17:15:00
12:35 PM,60.1,45.7,59,29.93,10.0,NW,15.0,20.7,N/A,,Scattered Clouds,320,2013-05-22 17:35:00
12:55 PM,60.4,46.0,59,29.93,10.0,NNW,16.1,25.3,N/A,,Scattered Clouds,340,2013-05-22 17:55:00
1:15 PM,61.0,45.7,57,29.93,10.0,NNW,18.4,26.5,N/A,,Mostly Cloudy,340,2013-05-22 18:15:00
1:35 PM,61.7,45.9,56,29.93,10.0,NNW,19.6,25.3,N/A,,Mostly Cloudy,340,2013-05-22 18:35:00
1:55 PM,60.8,45.5,57,29.94,10.0,North,12.7,23.0,N/A,,Overcast,360,2013-05-22 18:55:00
2:15 PM,62.1,45.7,55,29.94,10.0,North,13.8,24.2,N/A,,Overcast,350,2013-05-22 19:15:00
2:35 PM,62.4,46.0,55,29.94,10.0,North,18.4,21.9,N/A,,Overcast,350,2013-05-22 19:35:00
2:55 PM,61.0,46.2,58,29.95,10.0,North,13.8,23.0,N/A,,Overcast,360,2013-05-22 19:55:00
3:15 PM,60.6,45.7,58,29.95,10.0,North,13.8,20.7,N/A,,Overcast,360,2013-05-22 20:15:00
3:35 PM,59.9,46.0,60,29.95,10.0,NNW,16.1,19.6,N/A,,Overcast,340,2013-05-22 20:35:00
3:55 PM,59.0,46.0,62,29.96,10.0,North,16.1,20.7,N/A,,Overcast,350,2013-05-22 20:55:00
4:15 PM,59.0,46.0,62,29.96,10.0,NNW,15.0,18.4,N/A,,Overcast,340,2013-05-22 21:15:00
4:35 PM,58.1,46.2,65,29.96,10.0,North,17.3,21.9,N/A,,Overcast,350,2013-05-22 21:35:00
4:55 PM,57.7,46.2,65,29.97,10.0,North,12.7,19.6,N/A,,Overcast,350,2013-05-22 21:55:00
5:15 PM,58.6,45.9,63,29.98,10.0,NNW,13.8,-,N/A,,Overcast,340,2013-05-22 22:15:00
5:35 PM,58.6,46.6,64,29.98,10.0,North,12.7,16.1,N/A,,Overcast,350,2013-05-22 22:35:00
5:55 PM,58.1,46.4,65,29.98,10.0,North,16.1,19.6,N/A,,Overcast,350,2013-05-22 22:55:00
6:15 PM,56.8,46.2,68,29.99,10.0,NNE,16.1,-,N/A,,Overcast,20,2013-05-22 23:15:00
6:35 PM,55.6,45.7,69,30.00,10.0,North,12.7,18.4,N/A,,Overcast,360,2013-05-22 23:35:00
6:55 PM,54.5,45.7,72,30.01,10.0,North,13.8,19.6,N/A,,Overcast,360,2013-05-22 23:55:00
7:15 PM,54.5,45.9,73,30.01,10.0,North,13.8,17.3,N/A,,Overcast,350,2013-05-23 00:15:00
7:35 PM,54.0,45.5,73,30.02,10.0,North,13.8,17.3,N/A,,Overcast,360,2013-05-23 00:35:00
7:55 PM,53.2,45.1,74,30.03,10.0,NNE,13.8,-,N/A,,Overcast,20,2013-05-23 00:55:00
8:15 PM,52.9,44.6,73,30.04,10.0,North,8.1,-,N/A,,Overcast,10,2013-05-23 01:15:00
8:35 PM,53.2,44.8,73,30.04,10.0,North,10.4,16.1,N/A,,Overcast,10,2013-05-23 01:35:00
8:55 PM,53.1,45.3,75,30.05,10.0,North,10.4,-,N/A,,Overcast,10,2013-05-23 01:55:00
9:15 PM,52.9,44.8,74,30.06,10.0,North,8.1,-,N/A,,Overcast,10,2013-05-23 02:15:00
9:35 PM,52.9,44.2,72,30.07,10.0,North,11.5,18.4,N/A,,Overcast,10,2013-05-23 02:35:00
9:55 PM,52.9,44.6,73,30.08,10.0,North,9.2,-,N/A,,Overcast,10,2013-05-23 02:55:00
10:15 PM,52.0,45.5,79,30.09,10.0,North,9.2,-,N/A,,Overcast,10,2013-05-23 03:15:00
10:35 PM,52.0,45.9,80,30.09,10.0,North,8.1,-,N/A,,Overcast,10,2013-05-23 03:35:00
10:55 PM,51.8,46.8,83,30.10,10.0,North,6.9,-,N/A,,Overcast,360,2013-05-23 03:55:00
11:15 PM,50.9,47.3,87,30.11,7.0,NNE,8.1,-,N/A,Rain,Rain,30,2013-05-23 04:15:00
11:35 PM,50.0,47.3,90,30.11,7.0,NNE,11.5,-,N/A,,Overcast,30,2013-05-23 04:35:00
11:55 PM,49.8,46.8,89,30.13,5.0,NNE,12.7,16.1,N/A,Rain,Light Rain,30,2013-05-23 04:55:00